sensor_id;sensor_type;location;lat;lon;timestamp;temperature;humidity
14850;DHT22;7517;48.400;11.770;2023-07-29T00:00:16;23.30;75.60
14850;DHT22;7517;48.400;11.770;2023-07-29T00:02:45;23.30;75.50
14850;DHT22;7517;48.400;11.770;2023-07-29T00:05:13;23.30;75.50
14850;DHT22;7517;48.400;11.770;2023-07-29T00:07:42;23.30;75.50
14850;DHT22;7517;48.400;11.770;2023-07-29T00:10:12;23.30;75.50
14850;DHT22;7517;48.400;11.770;2023-07-29T00:12:39;23.30;75.50
14850;DHT22;7517;48.400;11.770;2023-07-29T00:15:07;23.30;75.50
14850;DHT22;7517;48.400;11.770;2023-07-29T00:17:35;23.20;75.50
14850;DHT22;7517;48.400;11.770;2023-07-29T00:20:03;23.20;75.60
14850;DHT22;7517;48.400;11.770;2023-07-29T00:22:33;23.20;75.50
14850;DHT22;7517;48.400;11.770;2023-07-29T00:25:00;23.20;75.60
14850;DHT22;7517;48.400;11.770;2023-07-29T00:27:27;23.20;75.60
14850;DHT22;7517;48.400;11.770;2023-07-29T00:29:54;23.20;75.70
14850;DHT22;7517;48.400;11.770;2023-07-29T00:32:22;23.20;75.80
14850;DHT22;7517;48.400;11.770;2023-07-29T00:34:49;23.20;75.80
14850;DHT22;7517;48.400;11.770;2023-07-29T00:37:16;23.10;75.70
14850;DHT22;7517;48.400;11.770;2023-07-29T00:39:45;23.10;75.70
14850;DHT22;7517;48.400;11.770;2023-07-29T00:42:12;23.10;75.70
14850;DHT22;7517;48.400;11.770;2023-07-29T00:44:39;23.10;75.70
14850;DHT22;7517;48.400;11.770;2023-07-29T00:47:07;23.10;75.70
14850;DHT22;7517;48.400;11.770;2023-07-29T00:49:35;23.10;75.70
14850;DHT22;7517;48.400;11.770;2023-07-29T00:52:02;23.10;75.60
14850;DHT22;7517;48.400;11.770;2023-07-29T00:54:30;23.10;75.50
14850;DHT22;7517;48.400;11.770;2023-07-29T00:56:59;23.10;75.50
14850;DHT22;7517;48.400;11.770;2023-07-29T00:59:26;23.10;75.40
14850;DHT22;7517;48.400;11.770;2023-07-29T01:01:55;23.00;75.10
14850;DHT22;7517;48.400;11.770;2023-07-29T01:04:23;23.00;74.90
14850;DHT22;7517;48.400;11.770;2023-07-29T01:06:55;23.00;74.80
14850;DHT22;7517;48.400;11.770;2023-07-29T01:09:33;23.00;74.70
14850;DHT22;7517;48.400;11.770;2023-07-29T01:12:13;22.90;74.70
14850;DHT22;7517;48.400;11.770;2023-07-29T01:14:58;22.90;74.60
14850;DHT22;7517;48.400;11.770;2023-07-29T01:17:33;22.80;74.40
14850;DHT22;7517;48.400;11.770;2023-07-29T01:20:08;22.80;74.30
14850;DHT22;7517;48.400;11.770;2023-07-29T01:22:38;22.80;74.30
14850;DHT22;7517;48.400;11.770;2023-07-29T01:25:08;22.70;74.40
14850;DHT22;7517;48.400;11.770;2023-07-29T01:27:35;22.70;74.40
14850;DHT22;7517;48.400;11.770;2023-07-29T01:30:03;22.60;74.20
14850;DHT22;7517;48.400;11.770;2023-07-29T01:32:37;22.60;74.20
14850;DHT22;7517;48.400;11.770;2023-07-29T01:35:17;22.60;74.30
14850;DHT22;7517;48.400;11.770;2023-07-29T01:37:54;22.50;74.30
14850;DHT22;7517;48.400;11.770;2023-07-29T01:40:27;22.50;74.10
14850;DHT22;7517;48.400;11.770;2023-07-29T01:42:55;22.50;73.90
14850;DHT22;7517;48.400;11.770;2023-07-29T01:45:23;22.40;73.90
14850;DHT22;7517;48.400;11.770;2023-07-29T01:47:51;22.40;73.90
14850;DHT22;7517;48.400;11.770;2023-07-29T01:50:19;22.30;73.80
14850;DHT22;7517;48.400;11.770;2023-07-29T01:52:46;22.30;73.80
14850;DHT22;7517;48.400;11.770;2023-07-29T01:55:13;22.30;73.80
14850;DHT22;7517;48.400;11.770;2023-07-29T01:57:42;22.20;73.80
14850;DHT22;7517;48.400;11.770;2023-07-29T02:00:11;22.20;74.70
14850;DHT22;7517;48.400;11.770;2023-07-29T02:02:40;22.10;74.00
14850;DHT22;7517;48.400;11.770;2023-07-29T02:05:08;22.10;74.10
14850;DHT22;7517;48.400;11.770;2023-07-29T02:07:35;22.00;74.20
14850;DHT22;7517;48.400;11.770;2023-07-29T02:10:03;22.00;74.30
14850;DHT22;7517;48.400;11.770;2023-07-29T02:12:31;22.00;74.30
14850;DHT22;7517;48.400;11.770;2023-07-29T02:15:00;21.90;74.20
14850;DHT22;7517;48.400;11.770;2023-07-29T02:17:27;21.90;74.20
14850;DHT22;7517;48.400;11.770;2023-07-29T02:19:54;21.90;74.30
14850;DHT22;7517;48.400;11.770;2023-07-29T02:22:21;21.80;74.40
14850;DHT22;7517;48.400;11.770;2023-07-29T02:24:48;21.80;74.60
14850;DHT22;7517;48.400;11.770;2023-07-29T02:27:15;21.80;74.70
14850;DHT22;7517;48.400;11.770;2023-07-29T02:29:43;21.80;74.70
14850;DHT22;7517;48.400;11.770;2023-07-29T02:32:12;21.70;74.70
14850;DHT22;7517;48.400;11.770;2023-07-29T02:34:39;21.70;74.80
14850;DHT22;7517;48.400;11.770;2023-07-29T02:37:08;21.60;74.70
14850;DHT22;7517;48.400;11.770;2023-07-29T02:39:35;21.60;74.80
14850;DHT22;7517;48.400;11.770;2023-07-29T02:42:03;21.60;74.80
14850;DHT22;7517;48.400;11.770;2023-07-29T02:44:30;21.60;74.70
14850;DHT22;7517;48.400;11.770;2023-07-29T02:46:58;21.60;74.70
14850;DHT22;7517;48.400;11.770;2023-07-29T02:49:26;21.50;74.80
14850;DHT22;7517;48.400;11.770;2023-07-29T02:51:53;21.50;74.80
14850;DHT22;7517;48.400;11.770;2023-07-29T02:54:21;21.50;74.90
14850;DHT22;7517;48.400;11.770;2023-07-29T02:56:50;21.50;74.90
14850;DHT22;7517;48.400;11.770;2023-07-29T02:59:18;21.40;74.90
14850;DHT22;7517;48.400;11.770;2023-07-29T03:01:45;21.40;74.90
14850;DHT22;7517;48.400;11.770;2023-07-29T03:04:13;21.40;74.90
14850;DHT22;7517;48.400;11.770;2023-07-29T03:06:41;21.40;75.10
14850;DHT22;7517;48.400;11.770;2023-07-29T03:09:09;21.40;75.10
14850;DHT22;7517;48.400;11.770;2023-07-29T03:11:36;21.40;75.10
14850;DHT22;7517;48.400;11.770;2023-07-29T03:14:03;21.30;75.10
14850;DHT22;7517;48.400;11.770;2023-07-29T03:16:30;21.30;75.20
14850;DHT22;7517;48.400;11.770;2023-07-29T03:18:57;21.30;75.30
14850;DHT22;7517;48.400;11.770;2023-07-29T03:21:26;21.30;75.30
14850;DHT22;7517;48.400;11.770;2023-07-29T03:23:54;21.30;75.30
14850;DHT22;7517;48.400;11.770;2023-07-29T03:26:22;21.30;75.50
14850;DHT22;7517;48.400;11.770;2023-07-29T03:28:49;21.30;75.50
14850;DHT22;7517;48.400;11.770;2023-07-29T03:31:16;21.30;75.60
14850;DHT22;7517;48.400;11.770;2023-07-29T03:33:43;21.30;75.60
14850;DHT22;7517;48.400;11.770;2023-07-29T03:36:11;21.30;75.50
14850;DHT22;7517;48.400;11.770;2023-07-29T03:38:39;21.20;75.50
14850;DHT22;7517;48.400;11.770;2023-07-29T03:41:08;21.20;75.50
14850;DHT22;7517;48.400;11.770;2023-07-29T03:43:36;21.20;75.50
14850;DHT22;7517;48.400;11.770;2023-07-29T03:46:03;21.20;76.20
14850;DHT22;7517;48.400;11.770;2023-07-29T03:48:30;21.20;75.40
14850;DHT22;7517;48.400;11.770;2023-07-29T03:50:58;21.20;75.40
14850;DHT22;7517;48.400;11.770;2023-07-29T03:53:25;21.20;75.50
14850;DHT22;7517;48.400;11.770;2023-07-29T03:55:52;21.20;75.40
14850;DHT22;7517;48.400;11.770;2023-07-29T03:58:21;21.20;75.50
14850;DHT22;7517;48.400;11.770;2023-07-29T04:00:48;21.20;75.60
14850;DHT22;7517;48.400;11.770;2023-07-29T04:03:15;21.20;75.70
14850;DHT22;7517;48.400;11.770;2023-07-29T04:05:42;21.20;75.80
14850;DHT22;7517;48.400;11.770;2023-07-29T04:08:10;21.20;76.10
14850;DHT22;7517;48.400;11.770;2023-07-29T04:10:37;21.20;76.00
14850;DHT22;7517;48.400;11.770;2023-07-29T04:13:04;21.20;76.10
14850;DHT22;7517;48.400;11.770;2023-07-29T04:15:33;21.20;76.20
14850;DHT22;7517;48.400;11.770;2023-07-29T04:18:00;21.20;76.40
14850;DHT22;7517;48.400;11.770;2023-07-29T04:20:27;21.20;76.60
14850;DHT22;7517;48.400;11.770;2023-07-29T04:22:54;21.20;76.70
14850;DHT22;7517;48.400;11.770;2023-07-29T04:25:21;21.20;77.60
14850;DHT22;7517;48.400;11.770;2023-07-29T04:27:49;21.30;77.10
14850;DHT22;7517;48.400;11.770;2023-07-29T04:30:16;21.20;77.10
14850;DHT22;7517;48.400;11.770;2023-07-29T04:32:44;21.30;77.30
14850;DHT22;7517;48.400;11.770;2023-07-29T04:35:14;21.30;78.10
14850;DHT22;7517;48.400;11.770;2023-07-29T04:37:41;21.30;77.40
14850;DHT22;7517;48.400;11.770;2023-07-29T04:40:09;21.30;77.50
14850;DHT22;7517;48.400;11.770;2023-07-29T04:42:36;21.40;77.50
14850;DHT22;7517;48.400;11.770;2023-07-29T04:45:04;21.40;77.40
14850;DHT22;7517;48.400;11.770;2023-07-29T04:47:32;21.40;77.40
14850;DHT22;7517;48.400;11.770;2023-07-29T04:50:01;21.40;77.20
14850;DHT22;7517;48.400;11.770;2023-07-29T04:52:28;21.50;77.80
14850;DHT22;7517;48.400;11.770;2023-07-29T04:54:55;21.50;76.90
14850;DHT22;7517;48.400;11.770;2023-07-29T04:57:23;21.50;76.90
14850;DHT22;7517;48.400;11.770;2023-07-29T04:59:50;21.50;76.80
14850;DHT22;7517;48.400;11.770;2023-07-29T05:02:17;21.50;76.70
14850;DHT22;7517;48.400;11.770;2023-07-29T05:04:44;21.50;76.70
14850;DHT22;7517;48.400;11.770;2023-07-29T05:07:13;21.60;76.70
14850;DHT22;7517;48.400;11.770;2023-07-29T05:09:40;21.60;76.70
14850;DHT22;7517;48.400;11.770;2023-07-29T05:12:08;21.60;76.60
14850;DHT22;7517;48.400;11.770;2023-07-29T05:14:35;21.60;76.50
14850;DHT22;7517;48.400;11.770;2023-07-29T05:17:03;21.60;76.50
14850;DHT22;7517;48.400;11.770;2023-07-29T05:19:30;21.60;76.40
14850;DHT22;7517;48.400;11.770;2023-07-29T05:21:57;21.60;76.40
14850;DHT22;7517;48.400;11.770;2023-07-29T05:24:26;21.60;76.50
14850;DHT22;7517;48.400;11.770;2023-07-29T05:26:53;21.60;76.60
14850;DHT22;7517;48.400;11.770;2023-07-29T05:29:20;21.70;76.70
14850;DHT22;7517;48.400;11.770;2023-07-29T05:31:48;21.70;76.80
14850;DHT22;7517;48.400;11.770;2023-07-29T05:34:15;21.70;77.00
14850;DHT22;7517;48.400;11.770;2023-07-29T05:36:42;21.70;77.20
14850;DHT22;7517;48.400;11.770;2023-07-29T05:39:09;21.80;77.40
14850;DHT22;7517;48.400;11.770;2023-07-29T05:41:39;21.80;77.40
14850;DHT22;7517;48.400;11.770;2023-07-29T05:44:06;21.80;77.50
14850;DHT22;7517;48.400;11.770;2023-07-29T05:46:33;21.80;77.60
14850;DHT22;7517;48.400;11.770;2023-07-29T05:49:01;21.90;77.80
14850;DHT22;7517;48.400;11.770;2023-07-29T05:51:28;21.90;77.90
14850;DHT22;7517;48.400;11.770;2023-07-29T05:53:55;22.00;77.90
14850;DHT22;7517;48.400;11.770;2023-07-29T05:56:23;22.00;77.80
14850;DHT22;7517;48.400;11.770;2023-07-29T05:58:51;22.10;77.70
14850;DHT22;7517;48.400;11.770;2023-07-29T06:01:18;22.20;77.90
14850;DHT22;7517;48.400;11.770;2023-07-29T06:03:46;22.20;78.60
14850;DHT22;7517;48.400;11.770;2023-07-29T06:06:14;22.30;78.00
14850;DHT22;7517;48.400;11.770;2023-07-29T06:08:42;22.30;77.90
14850;DHT22;7517;48.400;11.770;2023-07-29T06:11:09;22.40;78.00
14850;DHT22;7517;48.400;11.770;2023-07-29T06:13:36;22.50;78.10
14850;DHT22;7517;48.400;11.770;2023-07-29T06:16:05;22.50;77.90
14850;DHT22;7517;48.400;11.770;2023-07-29T06:18:32;22.60;78.00
14850;DHT22;7517;48.400;11.770;2023-07-29T06:21:00;22.60;78.00
14850;DHT22;7517;48.400;11.770;2023-07-29T06:23:27;22.70;78.20
14850;DHT22;7517;48.400;11.770;2023-07-29T06:25:54;22.80;78.50
14850;DHT22;7517;48.400;11.770;2023-07-29T06:28:21;22.80;78.10
14850;DHT22;7517;48.400;11.770;2023-07-29T06:30:49;22.90;77.90
14850;DHT22;7517;48.400;11.770;2023-07-29T06:33:18;23.00;77.50
14850;DHT22;7517;48.400;11.770;2023-07-29T06:35:45;23.10;76.70
14850;DHT22;7517;48.400;11.770;2023-07-29T06:38:13;23.10;76.30
14850;DHT22;7517;48.400;11.770;2023-07-29T06:40:40;23.10;76.10
14850;DHT22;7517;48.400;11.770;2023-07-29T06:43:07;23.10;76.30
14850;DHT22;7517;48.400;11.770;2023-07-29T06:45:34;23.20;76.60
14850;DHT22;7517;48.400;11.770;2023-07-29T06:48:02;23.20;76.80
14850;DHT22;7517;48.400;11.770;2023-07-29T06:50:30;23.30;76.70
14850;DHT22;7517;48.400;11.770;2023-07-29T06:52:57;23.30;76.60
14850;DHT22;7517;48.400;11.770;2023-07-29T06:55:25;23.40;76.40
14850;DHT22;7517;48.400;11.770;2023-07-29T06:57:53;23.40;76.40
14850;DHT22;7517;48.400;11.770;2023-07-29T07:00:21;23.50;76.50
14850;DHT22;7517;48.400;11.770;2023-07-29T07:02:48;23.60;76.60
14850;DHT22;7517;48.400;11.770;2023-07-29T07:05:15;23.60;76.60
14850;DHT22;7517;48.400;11.770;2023-07-29T07:07:44;23.70;76.40
14850;DHT22;7517;48.400;11.770;2023-07-29T07:10:11;23.80;76.40
14850;DHT22;7517;48.400;11.770;2023-07-29T07:12:38;23.80;76.40
14850;DHT22;7517;48.400;11.770;2023-07-29T07:15:07;23.90;76.40
14850;DHT22;7517;48.400;11.770;2023-07-29T07:17:35;23.90;76.30
14850;DHT22;7517;48.400;11.770;2023-07-29T07:20:02;23.90;76.40
14850;DHT22;7517;48.400;11.770;2023-07-29T07:22:30;23.90;76.50
14850;DHT22;7517;48.400;11.770;2023-07-29T07:24:59;23.90;76.60
14850;DHT22;7517;48.400;11.770;2023-07-29T07:27:26;23.90;76.90
14850;DHT22;7517;48.400;11.770;2023-07-29T07:29:53;23.90;76.90
14850;DHT22;7517;48.400;11.770;2023-07-29T07:32:20;23.80;76.90
14850;DHT22;7517;48.400;11.770;2023-07-29T07:34:47;23.80;77.20
14850;DHT22;7517;48.400;11.770;2023-07-29T07:37:15;23.80;77.30
14850;DHT22;7517;48.400;11.770;2023-07-29T07:39:42;23.70;77.40
14850;DHT22;7517;48.400;11.770;2023-07-29T07:42:11;23.70;77.60
14850;DHT22;7517;48.400;11.770;2023-07-29T07:44:38;23.70;77.70
14850;DHT22;7517;48.400;11.770;2023-07-29T07:47:05;23.70;77.90
14850;DHT22;7517;48.400;11.770;2023-07-29T07:49:32;23.60;77.90
14850;DHT22;7517;48.400;11.770;2023-07-29T07:51:59;23.60;77.50
14850;DHT22;7517;48.400;11.770;2023-07-29T07:54:26;23.60;77.50
14850;DHT22;7517;48.400;11.770;2023-07-29T07:56:54;23.60;78.10
14850;DHT22;7517;48.400;11.770;2023-07-29T07:59:22;23.60;78.30
14850;DHT22;7517;48.400;11.770;2023-07-29T08:01:49;23.60;78.30
14850;DHT22;7517;48.400;11.770;2023-07-29T08:04:17;23.60;78.40
14850;DHT22;7517;48.400;11.770;2023-07-29T08:06:44;23.60;78.70
14850;DHT22;7517;48.400;11.770;2023-07-29T08:09:12;23.70;79.00
14850;DHT22;7517;48.400;11.770;2023-07-29T08:11:39;23.70;78.80
14850;DHT22;7517;48.400;11.770;2023-07-29T08:14:06;23.70;78.50
14850;DHT22;7517;48.400;11.770;2023-07-29T08:16:35;23.70;79.40
14850;DHT22;7517;48.400;11.770;2023-07-29T08:19:02;23.80;78.90
14850;DHT22;7517;48.400;11.770;2023-07-29T08:21:29;23.80;78.40
14850;DHT22;7517;48.400;11.770;2023-07-29T08:23:57;23.80;78.10
14850;DHT22;7517;48.400;11.770;2023-07-29T08:26:24;23.90;78.00
14850;DHT22;7517;48.400;11.770;2023-07-29T08:28:51;23.90;78.40
14850;DHT22;7517;48.400;11.770;2023-07-29T08:31:18;23.90;78.50
14850;DHT22;7517;48.400;11.770;2023-07-29T08:33:47;23.90;78.80
14850;DHT22;7517;48.400;11.770;2023-07-29T08:36:14;24.00;79.10
14850;DHT22;7517;48.400;11.770;2023-07-29T08:38:42;24.00;79.30
14850;DHT22;7517;48.400;11.770;2023-07-29T08:41:13;24.10;79.50
14850;DHT22;7517;48.400;11.770;2023-07-29T08:43:47;24.10;79.40
14850;DHT22;7517;48.400;11.770;2023-07-29T08:46:20;24.20;78.70
14850;DHT22;7517;48.400;11.770;2023-07-29T08:48:49;24.20;78.20
14850;DHT22;7517;48.400;11.770;2023-07-29T08:51:18;24.30;78.30
14850;DHT22;7517;48.400;11.770;2023-07-29T08:53:47;24.30;78.00
14850;DHT22;7517;48.400;11.770;2023-07-29T08:56:15;24.30;78.10
14850;DHT22;7517;48.400;11.770;2023-07-29T08:58:43;24.40;78.20
14850;DHT22;7517;48.400;11.770;2023-07-29T09:01:10;24.40;78.40
14850;DHT22;7517;48.400;11.770;2023-07-29T09:03:38;24.40;79.00
14850;DHT22;7517;48.400;11.770;2023-07-29T09:06:07;24.50;78.60
14850;DHT22;7517;48.400;11.770;2023-07-29T09:08:35;24.50;78.70
14850;DHT22;7517;48.400;11.770;2023-07-29T09:11:03;24.60;78.70
14850;DHT22;7517;48.400;11.770;2023-07-29T09:13:31;24.60;79.20
14850;DHT22;7517;48.400;11.770;2023-07-29T09:15:58;24.70;78.40
14850;DHT22;7517;48.400;11.770;2023-07-29T09:18:27;24.70;78.80
14850;DHT22;7517;48.400;11.770;2023-07-29T09:20:59;24.80;79.10
14850;DHT22;7517;48.400;11.770;2023-07-29T09:23:28;24.90;80.20
14850;DHT22;7517;48.400;11.770;2023-07-29T09:26:05;25.00;79.30
14850;DHT22;7517;48.400;11.770;2023-07-29T09:28:35;25.10;79.40
14850;DHT22;7517;48.400;11.770;2023-07-29T09:31:03;25.20;78.80
14850;DHT22;7517;48.400;11.770;2023-07-29T09:33:34;25.40;79.00
14850;DHT22;7517;48.400;11.770;2023-07-29T09:36:07;25.50;78.90
14850;DHT22;7517;48.400;11.770;2023-07-29T09:38:37;25.70;78.50
14850;DHT22;7517;48.400;11.770;2023-07-29T09:41:05;25.90;77.40
14850;DHT22;7517;48.400;11.770;2023-07-29T09:43:34;26.00;77.60
14850;DHT22;7517;48.400;11.770;2023-07-29T09:46:02;26.30;77.10
14850;DHT22;7517;48.400;11.770;2023-07-29T09:48:35;26.40;76.40
14850;DHT22;7517;48.400;11.770;2023-07-29T09:51:10;26.60;76.20
14850;DHT22;7517;48.400;11.770;2023-07-29T09:53:45;26.80;75.40
14850;DHT22;7517;48.400;11.770;2023-07-29T09:56:14;26.90;75.80
14850;DHT22;7517;48.400;11.770;2023-07-29T09:58:43;27.10;75.40
14850;DHT22;7517;48.400;11.770;2023-07-29T10:01:11;27.20;74.00
14850;DHT22;7517;48.400;11.770;2023-07-29T10:03:38;27.30;73.70
14850;DHT22;7517;48.400;11.770;2023-07-29T10:06:07;27.40;73.30
14850;DHT22;7517;48.400;11.770;2023-07-29T10:08:35;27.50;73.30
14850;DHT22;7517;48.400;11.770;2023-07-29T10:11:06;27.60;71.70
14850;DHT22;7517;48.400;11.770;2023-07-29T10:13:35;27.60;70.80
14850;DHT22;7517;48.400;11.770;2023-07-29T10:16:03;27.60;71.20
14850;DHT22;7517;48.400;11.770;2023-07-29T10:18:32;27.70;71.00
14850;DHT22;7517;48.400;11.770;2023-07-29T10:21:01;27.70;72.20
14850;DHT22;7517;48.400;11.770;2023-07-29T10:23:34;27.80;72.00
14850;DHT22;7517;48.400;11.770;2023-07-29T10:26:10;27.90;72.90
14850;DHT22;7517;48.400;11.770;2023-07-29T10:28:40;28.10;71.80
14850;DHT22;7517;48.400;11.770;2023-07-29T10:31:13;28.30;71.80
14850;DHT22;7517;48.400;11.770;2023-07-29T10:33:43;28.40;71.50
14850;DHT22;7517;48.400;11.770;2023-07-29T10:36:11;28.60;69.20
14850;DHT22;7517;48.400;11.770;2023-07-29T10:38:40;28.70;69.10
14850;DHT22;7517;48.400;11.770;2023-07-29T10:41:09;28.80;69.90
14850;DHT22;7517;48.400;11.770;2023-07-29T10:43:37;29.00;69.10
14850;DHT22;7517;48.400;11.770;2023-07-29T10:46:17;29.10;68.20
14850;DHT22;7517;48.400;11.770;2023-07-29T10:48:53;29.30;65.20
14850;DHT22;7517;48.400;11.770;2023-07-29T10:51:26;29.30;64.80
14850;DHT22;7517;48.400;11.770;2023-07-29T10:53:57;29.30;64.30
14850;DHT22;7517;48.400;11.770;2023-07-29T10:56:31;29.20;62.80
14850;DHT22;7517;48.400;11.770;2023-07-29T11:02:17;28.80;60.80
14850;DHT22;7517;48.400;11.770;2023-07-29T11:04:50;28.50;61.20
14850;DHT22;7517;48.400;11.770;2023-07-29T11:07:22;28.20;63.10
14850;DHT22;7517;48.400;11.770;2023-07-29T11:09:56;27.90;65.50
14850;DHT22;7517;48.400;11.770;2023-07-29T11:12:40;27.50;66.10
14850;DHT22;7517;48.400;11.770;2023-07-29T11:15:22;27.00;68.00
14850;DHT22;7517;48.400;11.770;2023-07-29T11:17:51;26.60;68.60
14850;DHT22;7517;48.400;11.770;2023-07-29T11:20:21;26.30;68.50
14850;DHT22;7517;48.400;11.770;2023-07-29T11:22:49;25.90;69.10
14850;DHT22;7517;48.400;11.770;2023-07-29T11:25:18;25.60;69.90
14850;DHT22;7517;48.400;11.770;2023-07-29T11:27:47;25.30;71.00
14850;DHT22;7517;48.400;11.770;2023-07-29T11:30:17;25.10;72.00
14850;DHT22;7517;48.400;11.770;2023-07-29T11:32:46;24.80;72.90
14850;DHT22;7517;48.400;11.770;2023-07-29T11:35:18;24.60;73.90
14850;DHT22;7517;48.400;11.770;2023-07-29T11:37:48;24.50;75.00
14850;DHT22;7517;48.400;11.770;2023-07-29T11:40:18;24.40;75.90
14850;DHT22;7517;48.400;11.770;2023-07-29T11:42:48;24.30;76.60
14850;DHT22;7517;48.400;11.770;2023-07-29T11:45:22;24.20;77.20
14850;DHT22;7517;48.400;11.770;2023-07-29T11:47:57;24.10;77.90
14850;DHT22;7517;48.400;11.770;2023-07-29T11:50:42;24.10;78.00
14850;DHT22;7517;48.400;11.770;2023-07-29T11:53:10;24.00;78.40
14850;DHT22;7517;48.400;11.770;2023-07-29T11:55:38;24.00;79.10
14850;DHT22;7517;48.400;11.770;2023-07-29T11:58:07;24.00;79.40
14850;DHT22;7517;48.400;11.770;2023-07-29T12:00:34;24.00;80.10
14850;DHT22;7517;48.400;11.770;2023-07-29T12:03:02;24.00;80.30
14850;DHT22;7517;48.400;11.770;2023-07-29T12:05:29;24.10;80.80
14850;DHT22;7517;48.400;11.770;2023-07-29T12:07:57;24.10;81.30
14850;DHT22;7517;48.400;11.770;2023-07-29T12:10:25;24.10;81.00
14850;DHT22;7517;48.400;11.770;2023-07-29T12:12:53;24.20;81.10
14850;DHT22;7517;48.400;11.770;2023-07-29T12:15:26;24.20;81.70
14850;DHT22;7517;48.400;11.770;2023-07-29T12:17:55;24.30;82.50
14850;DHT22;7517;48.400;11.770;2023-07-29T12:20:23;24.30;82.30
14850;DHT22;7517;48.400;11.770;2023-07-29T12:22:55;24.30;82.50
14850;DHT22;7517;48.400;11.770;2023-07-29T12:25:23;24.40;83.10
14850;DHT22;7517;48.400;11.770;2023-07-29T12:27:52;24.50;83.30
14850;DHT22;7517;48.400;11.770;2023-07-29T12:30:23;24.60;83.70
14850;DHT22;7517;48.400;11.770;2023-07-29T12:32:55;24.70;83.80
14850;DHT22;7517;48.400;11.770;2023-07-29T12:35:34;24.80;83.50
14850;DHT22;7517;48.400;11.770;2023-07-29T12:38:03;24.90;84.10
14850;DHT22;7517;48.400;11.770;2023-07-29T12:40:31;25.00;83.40
14850;DHT22;7517;48.400;11.770;2023-07-29T12:42:58;25.10;83.20
14850;DHT22;7517;48.400;11.770;2023-07-29T12:45:35;25.20;83.50
14850;DHT22;7517;48.400;11.770;2023-07-29T12:48:08;25.30;82.50
14850;DHT22;7517;48.400;11.770;2023-07-29T12:50:35;25.40;82.40
14850;DHT22;7517;48.400;11.770;2023-07-29T12:53:07;25.50;83.40
14850;DHT22;7517;48.400;11.770;2023-07-29T12:55:36;25.60;82.70
14850;DHT22;7517;48.400;11.770;2023-07-29T12:58:06;25.70;82.60
14850;DHT22;7517;48.400;11.770;2023-07-29T13:00:39;25.80;82.30
14850;DHT22;7517;48.400;11.770;2023-07-29T13:03:06;25.80;83.10
14850;DHT22;7517;48.400;11.770;2023-07-29T13:05:33;25.90;82.00
14850;DHT22;7517;48.400;11.770;2023-07-29T13:08:01;26.00;81.80
14850;DHT22;7517;48.400;11.770;2023-07-29T13:10:31;26.00;81.20
14850;DHT22;7517;48.400;11.770;2023-07-29T13:12:58;26.00;80.40
14850;DHT22;7517;48.400;11.770;2023-07-29T13:15:25;26.10;80.40
14850;DHT22;7517;48.400;11.770;2023-07-29T13:17:57;26.10;80.40
14850;DHT22;7517;48.400;11.770;2023-07-29T13:20:24;26.10;80.50
14850;DHT22;7517;48.400;11.770;2023-07-29T13:22:51;26.10;80.60
14850;DHT22;7517;48.400;11.770;2023-07-29T13:25:19;26.10;80.70
14850;DHT22;7517;48.400;11.770;2023-07-29T13:27:46;26.20;80.60
14850;DHT22;7517;48.400;11.770;2023-07-29T13:30:15;26.30;80.50
14850;DHT22;7517;48.400;11.770;2023-07-29T13:32:43;26.30;79.40
14850;DHT22;7517;48.400;11.770;2023-07-29T13:35:14;26.30;78.10
14850;DHT22;7517;48.400;11.770;2023-07-29T13:37:41;26.30;77.10
14850;DHT22;7517;48.400;11.770;2023-07-29T13:40:09;26.30;76.70
14850;DHT22;7517;48.400;11.770;2023-07-29T13:42:36;26.30;76.80
14850;DHT22;7517;48.400;11.770;2023-07-29T13:45:04;26.30;76.60
14850;DHT22;7517;48.400;11.770;2023-07-29T13:47:32;26.30;76.50
14850;DHT22;7517;48.400;11.770;2023-07-29T13:49:59;26.30;76.50
14850;DHT22;7517;48.400;11.770;2023-07-29T13:52:29;26.30;76.60
14850;DHT22;7517;48.400;11.770;2023-07-29T13:54:56;26.30;76.30
14850;DHT22;7517;48.400;11.770;2023-07-29T13:57:23;26.40;76.90
14850;DHT22;7517;48.400;11.770;2023-07-29T13:59:53;26.40;76.30
14850;DHT22;7517;48.400;11.770;2023-07-29T14:02:21;26.40;76.20
14850;DHT22;7517;48.400;11.770;2023-07-29T14:04:48;26.40;75.20
14850;DHT22;7517;48.400;11.770;2023-07-29T14:07:15;26.50;74.10
14850;DHT22;7517;48.400;11.770;2023-07-29T14:09:44;26.50;73.90
14850;DHT22;7517;48.400;11.770;2023-07-29T14:12:12;26.50;74.30
14850;DHT22;7517;48.400;11.770;2023-07-29T14:14:41;26.50;74.90
14850;DHT22;7517;48.400;11.770;2023-07-29T14:17:08;26.50;75.30
14850;DHT22;7517;48.400;11.770;2023-07-29T14:19:35;26.60;75.30
14850;DHT22;7517;48.400;11.770;2023-07-29T14:22:03;26.60;75.50
14850;DHT22;7517;48.400;11.770;2023-07-29T14:24:31;26.60;75.50
14850;DHT22;7517;48.400;11.770;2023-07-29T14:26:59;26.70;75.10
14850;DHT22;7517;48.400;11.770;2023-07-29T14:29:27;26.70;73.60
14850;DHT22;7517;48.400;11.770;2023-07-29T14:31:54;26.70;73.30
14850;DHT22;7517;48.400;11.770;2023-07-29T14:34:21;26.60;72.20
14850;DHT22;7517;48.400;11.770;2023-07-29T14:36:48;26.60;71.60
14850;DHT22;7517;48.400;11.770;2023-07-29T14:39:15;26.50;71.80
14850;DHT22;7517;48.400;11.770;2023-07-29T14:41:43;26.50;71.90
14850;DHT22;7517;48.400;11.770;2023-07-29T14:44:12;26.40;72.00
14850;DHT22;7517;48.400;11.770;2023-07-29T14:46:40;26.40;72.10
14850;DHT22;7517;48.400;11.770;2023-07-29T14:49:07;26.30;71.70
14850;DHT22;7517;48.400;11.770;2023-07-29T14:51:34;26.30;70.90
14850;DHT22;7517;48.400;11.770;2023-07-29T14:54:03;26.30;70.70
14850;DHT22;7517;48.400;11.770;2023-07-29T14:56:30;26.30;71.10
14850;DHT22;7517;48.400;11.770;2023-07-29T14:58:57;26.20;70.70
14850;DHT22;7517;48.400;11.770;2023-07-29T15:01:25;26.20;70.20
14850;DHT22;7517;48.400;11.770;2023-07-29T15:03:52;26.10;70.60
14850;DHT22;7517;48.400;11.770;2023-07-29T15:06:20;26.10;71.10
14850;DHT22;7517;48.400;11.770;2023-07-29T15:08:47;26.00;71.20
14850;DHT22;7517;48.400;11.770;2023-07-29T15:11:15;26.00;71.40
14850;DHT22;7517;48.400;11.770;2023-07-29T15:13:42;26.00;71.80
14850;DHT22;7517;48.400;11.770;2023-07-29T15:16:09;25.90;71.80
14850;DHT22;7517;48.400;11.770;2023-07-29T15:18:37;25.90;71.70
14850;DHT22;7517;48.400;11.770;2023-07-29T15:21:05;25.80;72.00
14850;DHT22;7517;48.400;11.770;2023-07-29T15:23:32;25.80;72.30
14850;DHT22;7517;48.400;11.770;2023-07-29T15:25:59;25.80;72.90
14850;DHT22;7517;48.400;11.770;2023-07-29T15:28:26;25.70;73.70
14850;DHT22;7517;48.400;11.770;2023-07-29T15:30:53;25.70;74.30
14850;DHT22;7517;48.400;11.770;2023-07-29T15:33:21;25.60;74.30
14850;DHT22;7517;48.400;11.770;2023-07-29T15:35:50;25.60;74.20
14850;DHT22;7517;48.400;11.770;2023-07-29T15:38:17;25.60;74.20
14850;DHT22;7517;48.400;11.770;2023-07-29T15:40:45;25.50;74.40